createdAt,value
2022-08-17T00:03:42.377Z,19.60
2022-08-17T00:08:05.175Z,19.50
2022-08-17T00:12:43.688Z,19.40
2022-08-17T00:17:06.734Z,19.30
2022-08-17T00:22:30.842Z,19.30
2022-08-17T00:26:13.675Z,19.30
2022-08-17T00:30:51.017Z,19.30
2022-08-17T00:35:22.455Z,19.30
2022-08-17T00:39:44.899Z,19.20
2022-08-17T00:44:07.355Z,19.10
2022-08-17T00:48:33.019Z,19.10
2022-08-17T00:52:57.714Z,19.10
2022-08-17T00:57:35.414Z,18.90
2022-08-17T01:01:57.975Z,18.90
2022-08-17T01:06:23.214Z,18.80
2022-08-17T01:10:59.865Z,18.80
2022-08-17T01:15:25.586Z,18.60
2022-08-17T01:19:48.114Z,18.50
2022-08-17T01:24:11.134Z,18.40
2022-08-17T01:28:54.926Z,18.20
2022-08-17T01:33:17.935Z,18.30
2022-08-17T01:37:43.056Z,18.20
2022-08-17T01:42:51.468Z,18.00
2022-08-17T01:47:13.754Z,17.90
2022-08-17T01:51:36.234Z,17.80
2022-08-17T01:56:11.095Z,17.70
2022-08-17T02:00:54.458Z,17.50
2022-08-17T02:05:18.728Z,17.40
2022-08-17T02:09:41.254Z,17.40
2022-08-17T02:14:07.515Z,17.40
2022-08-17T02:18:30.474Z,17.30
2022-08-17T02:22:52.838Z,17.10
2022-08-17T02:27:14.990Z,17.00
2022-08-17T02:31:38.095Z,16.80
2022-08-17T02:36:00.735Z,16.70
2022-08-17T02:40:35.726Z,16.60
2022-08-17T02:44:58.694Z,16.60
2022-08-17T02:49:20.715Z,16.60
2022-08-17T02:53:43.494Z,16.50
2022-08-17T02:58:06.674Z,16.50
2022-08-17T03:02:29.014Z,16.50
2022-08-17T03:06:51.393Z,16.40
2022-08-17T03:11:13.736Z,16.40
2022-08-17T03:15:36.663Z,16.30
2022-08-17T03:20:03.855Z,16.20
2022-08-17T03:24:28.913Z,16.00
2022-08-17T03:28:52.134Z,15.90
2022-08-17T03:33:14.535Z,15.80
2022-08-17T03:37:37.215Z,15.70
2022-08-17T03:42:09.384Z,15.60
2022-08-17T03:47:10.655Z,15.50
2022-08-17T03:51:51.466Z,15.60
2022-08-17T03:56:32.635Z,15.60
2022-08-17T04:00:55.894Z,15.50
2022-08-17T04:05:18.315Z,15.50
2022-08-17T04:09:40.894Z,15.50
2022-08-17T04:14:05.255Z,15.60
2022-08-17T04:18:27.694Z,15.60
2022-08-17T04:23:12.806Z,15.70
2022-08-17T04:27:35.132Z,16.20
2022-08-17T04:31:58.454Z,17.30
2022-08-17T04:36:21.767Z,18.60
2022-08-17T04:41:03.274Z,20.10
2022-08-17T04:45:25.627Z,21.30
2022-08-17T04:49:54.696Z,22.70
2022-08-17T04:54:22.859Z,24.00
2022-08-17T04:58:49.906Z,25.10
2022-08-17T05:03:13.395Z,25.70
2022-08-17T05:07:35.635Z,26.90
2022-08-17T05:12:02.675Z,27.50
2022-08-17T05:16:27.776Z,28.80
2022-08-17T05:20:50.476Z,30.20
2022-08-17T05:25:14.906Z,31.30
2022-08-17T05:29:37.315Z,32.70
2022-08-17T05:34:00.175Z,33.60
2022-08-17T05:38:24.635Z,33.40
2022-08-17T05:42:47.435Z,31.70
2022-08-17T05:47:09.898Z,30.70
2022-08-17T05:51:35.407Z,31.70
2022-08-17T05:56:29.492Z,33.90
2022-08-17T06:01:51.734Z,36.10
2022-08-17T06:06:32.775Z,37.60
2022-08-17T06:11:33.115Z,38.30
2022-08-17T06:16:28.192Z,38.60
2022-08-17T06:21:03.232Z,38.70
2022-08-17T06:25:40.636Z,38.50
2022-08-17T06:30:21.534Z,37.90
2022-08-17T06:34:46.196Z,37.70
2022-08-17T06:39:36.187Z,38.30
2022-08-17T06:44:42.306Z,39.00
2022-08-17T06:49:40.936Z,39.90
2022-08-17T06:54:45.955Z,40.20
2022-08-17T06:59:13.648Z,41.90
2022-08-17T07:03:47.915Z,43.10
2022-08-17T07:08:29.962Z,43.80
2022-08-17T07:12:58.916Z,44.00
2022-08-17T07:17:46.976Z,45.00
2022-08-17T07:23:00.684Z,45.10
2022-08-17T07:27:27.936Z,44.20
2022-08-17T07:31:50.835Z,45.10
2022-08-17T07:36:29.979Z,47.00
2022-08-17T07:41:01.415Z,48.60
2022-08-17T07:45:56.275Z,49.30
2022-08-17T07:50:29.855Z,50.00
2022-08-17T07:54:52.436Z,49.10
2022-08-17T07:59:33.548Z,48.80
2022-08-17T08:03:56.383Z,48.10
2022-08-17T08:08:43.956Z,48.60
2022-08-17T08:13:26.166Z,49.00
2022-08-17T08:18:00.244Z,49.20
2022-08-17T08:22:35.922Z,49.10
2022-08-17T08:27:04.376Z,49.20
2022-08-17T08:31:49.474Z,50.60
2022-08-17T08:37:16.562Z,50.60
2022-08-17T08:41:59.211Z,50.40
2022-08-17T08:46:45.510Z,51.60
2022-08-17T08:51:37.596Z,51.50
2022-08-17T08:57:11.861Z,51.70
2022-08-17T09:01:41.398Z,51.90
2022-08-17T09:06:33.572Z,51.80
2022-08-17T09:12:01.938Z,51.10
2022-08-17T09:16:37.736Z,50.60
2022-08-17T09:21:23.040Z,48.20
2022-08-17T09:25:55.996Z,47.90
2022-08-17T09:30:19.876Z,50.10
2022-08-17T09:34:53.896Z,51.30
2022-08-17T09:39:58.039Z,52.10
2022-08-17T09:44:40.257Z,52.50
2022-08-17T09:49:40.316Z,53.10
2022-08-17T09:54:35.199Z,53.10
2022-08-17T09:59:17.312Z,51.70
2022-08-17T10:04:22.113Z,50.70
2022-08-17T10:08:52.803Z,50.20
2022-08-17T10:13:53.109Z,49.90
2022-08-17T10:19:03.071Z,50.20
2022-08-17T10:23:48.596Z,51.10
2022-08-17T10:28:20.046Z,51.80
2022-08-17T10:32:48.537Z,52.10
2022-08-17T10:37:20.138Z,51.50
2022-08-17T10:41:47.068Z,47.60
2022-08-17T10:46:30.340Z,47.10
2022-08-17T10:50:57.875Z,48.10
2022-08-17T10:55:20.975Z,49.10
2022-08-17T10:59:47.445Z,49.80
2022-08-17T11:04:18.555Z,49.80
2022-08-17T11:09:53.655Z,49.90
2022-08-17T11:14:37.947Z,49.40
2022-08-17T11:19:45.875Z,49.40
2022-08-17T11:24:28.726Z,49.50
2022-08-17T11:28:56.534Z,46.70
2022-08-17T11:33:36.633Z,43.90
2022-08-17T11:38:28.429Z,41.30
2022-08-17T11:43:25.474Z,38.70
2022-08-17T11:48:28.326Z,36.50
2022-08-17T11:52:51.455Z,35.20
2022-08-17T11:57:32.074Z,35.10
2022-08-17T12:01:57.413Z,34.60
2022-08-17T12:06:50.614Z,33.70
2022-08-17T12:12:11.175Z,33.60
2022-08-17T12:16:10.222Z,33.70
2022-08-17T12:20:42.914Z,33.90
2022-08-17T12:25:09.168Z,33.20
2022-08-17T12:29:35.938Z,32.90
2022-08-17T12:34:02.393Z,32.90
2022-08-17T12:38:32.702Z,33.10
2022-08-17T12:43:07.133Z,33.50
2022-08-17T12:47:31.734Z,33.40
2022-08-17T12:52:24.937Z,33.60
2022-08-17T12:56:48.154Z,34.20
2022-08-17T13:01:17.439Z,34.70
2022-08-17T13:05:43.926Z,35.50
2022-08-17T13:10:06.640Z,35.80
2022-08-17T13:14:29.714Z,35.80
2022-08-17T13:19:13.065Z,35.70
2022-08-17T13:23:36.275Z,35.80
2022-08-17T13:27:59.635Z,35.70
2022-08-17T13:32:43.705Z,34.90
2022-08-17T13:37:29.784Z,34.50
2022-08-17T13:41:56.345Z,35.00
2022-08-17T13:46:24.202Z,35.00
2022-08-17T13:50:53.022Z,35.00
2022-08-17T13:55:22.326Z,34.80
2022-08-17T13:59:55.594Z,34.50
2022-08-17T14:04:28.185Z,34.30
2022-08-17T14:08:53.337Z,34.10
2022-08-17T14:13:15.665Z,33.70
2022-08-17T14:17:39.222Z,33.70
2022-08-17T14:22:02.186Z,33.80
2022-08-17T14:26:24.850Z,34.00
2022-08-17T14:30:46.977Z,34.10
2022-08-17T14:35:13.047Z,34.10
2022-08-17T14:39:35.345Z,34.10
2022-08-17T14:43:57.826Z,34.00
2022-08-17T14:48:20.145Z,34.10
2022-08-17T14:52:43.026Z,34.10
2022-08-17T14:57:22.764Z,33.80
2022-08-17T15:01:48.365Z,33.50
2022-08-17T15:06:12.266Z,32.90
2022-08-17T15:10:35.807Z,32.70
2022-08-17T15:15:00.887Z,32.50
2022-08-17T15:19:23.205Z,32.30
2022-08-17T15:23:45.688Z,32.00
2022-08-17T15:28:08.500Z,32.10
2022-08-17T15:32:35.347Z,32.10
2022-08-17T15:36:57.766Z,32.10
2022-08-17T15:41:20.408Z,32.10
2022-08-17T15:45:43.926Z,31.90
2022-08-17T15:50:09.106Z,31.90
2022-08-17T15:54:34.577Z,31.80
2022-08-17T15:58:59.046Z,31.80
2022-08-17T16:03:58.198Z,31.60
2022-08-17T16:08:04.629Z,31.30
2022-08-17T16:12:26.966Z,31.20
2022-08-17T16:16:49.148Z,31.10
2022-08-17T16:21:27.429Z,31.00
2022-08-17T16:25:53.471Z,30.70
2022-08-17T16:30:18.193Z,30.50
2022-08-17T16:34:42.366Z,30.30
2022-08-17T16:39:05.327Z,30.20
2022-08-17T16:43:28.485Z,30.30
2022-08-17T16:47:51.749Z,30.30
2022-08-17T16:52:15.385Z,30.30
2022-08-17T16:56:55.566Z,30.20
2022-08-17T17:01:18.097Z,30.00
2022-08-17T17:06:03.792Z,29.80
2022-08-17T17:10:51.066Z,29.50
2022-08-17T17:15:17.605Z,29.20
2022-08-17T17:19:57.842Z,29.00
2022-08-17T17:24:55.826Z,28.80
2022-08-17T17:29:48.798Z,28.60
2022-08-17T17:34:16.261Z,28.50
2022-08-17T17:38:46.066Z,28.30
2022-08-17T17:43:37.049Z,28.10
2022-08-17T17:47:53.945Z,28.00
2022-08-17T17:53:09.263Z,27.80
2022-08-17T17:57:45.367Z,27.70
2022-08-17T18:02:51.213Z,27.50
2022-08-17T18:07:25.646Z,27.40
2022-08-17T18:12:23.164Z,27.20
2022-08-17T18:16:46.810Z,27.00
2022-08-17T18:21:21.119Z,26.90
2022-08-17T18:25:47.967Z,26.70
2022-08-17T18:30:14.717Z,26.50
2022-08-17T18:34:47.218Z,26.40
2022-08-17T18:39:26.579Z,26.30
2022-08-17T18:44:22.449Z,26.20
2022-08-17T18:49:07.108Z,26.00
2022-08-17T18:53:38.906Z,25.80
2022-08-17T18:58:20.365Z,25.60
2022-08-17T19:02:53.276Z,25.30
2022-08-17T19:07:24.743Z,25.00
2022-08-17T19:11:47.486Z,24.80
2022-08-17T19:16:18.473Z,24.60
2022-08-17T19:21:23.445Z,24.50
2022-08-17T19:25:50.766Z,24.20
2022-08-17T19:30:16.145Z,24.10
2022-08-17T19:34:42.686Z,24.00
2022-08-17T19:39:41.464Z,23.80
2022-08-17T19:44:41.432Z,23.70
2022-08-17T19:50:01.291Z,23.70
2022-08-17T19:54:38.325Z,23.70
2022-08-17T19:59:16.220Z,23.60
2022-08-17T20:04:10.487Z,23.40
2022-08-17T20:08:39.468Z,23.20
2022-08-17T20:13:08.427Z,23.00
2022-08-17T20:17:43.260Z,22.80
2022-08-17T20:22:23.786Z,22.50
2022-08-17T20:26:59.915Z,22.40
2022-08-17T20:32:08.029Z,22.30
2022-08-17T20:36:37.158Z,22.20
2022-08-17T20:41:01.377Z,22.10
2022-08-17T20:45:26.640Z,22.00
2022-08-17T20:50:06.171Z,21.90
2022-08-17T20:54:44.788Z,21.80
2022-08-17T20:59:07.296Z,21.60
2022-08-17T21:03:32.259Z,21.50
2022-08-17T21:08:18.785Z,21.50
2022-08-17T21:12:55.146Z,21.40
2022-08-17T21:18:01.246Z,21.30
2022-08-17T21:22:46.806Z,21.20
2022-08-17T21:27:53.546Z,21.10
2022-08-17T21:32:24.293Z,21.00
2022-08-17T21:36:49.268Z,20.90
2022-08-17T21:41:29.167Z,20.80
2022-08-17T21:46:21.119Z,20.70
2022-08-17T21:51:09.157Z,20.60
2022-08-17T21:55:34.386Z,20.60
2022-08-17T22:00:05.647Z,20.60
2022-08-17T22:04:38.207Z,20.60
2022-08-17T22:09:09.947Z,20.50
2022-08-17T22:13:33.218Z,20.40
2022-08-17T22:17:56.116Z,20.30
2022-08-17T22:22:32.420Z,20.20
2022-08-17T22:27:13.367Z,20.10
2022-08-17T22:31:57.287Z,20.10
2022-08-17T22:36:39.100Z,20.10
2022-08-17T22:41:32.214Z,20.20
2022-08-17T22:46:00.192Z,20.30
2022-08-17T22:50:30.627Z,20.40
2022-08-17T22:55:40.628Z,20.50
2022-08-17T23:00:04.978Z,20.60
2022-08-17T23:04:37.369Z,20.70
2022-08-17T23:09:03.316Z,20.80
2022-08-17T23:13:26.750Z,20.70
2022-08-17T23:17:49.046Z,20.70
2022-08-17T23:22:12.151Z,20.50
2022-08-17T23:26:41.068Z,20.30
2022-08-17T23:31:05.802Z,20.20
2022-08-17T23:35:39.258Z,20.00
2022-08-17T23:40:06.208Z,19.90
2022-08-17T23:44:29.148Z,19.80
2022-08-17T23:48:55.548Z,19.70
2022-08-17T23:53:18.100Z,19.60
2022-08-17T23:57:41.670Z,19.60
